»·PEaware :: N143RN KAPA-KTEX

N143RN :: KAPA-KTEX

FLIGHT INFORMATION

Flight Status: Arrived
Operator: Privately registered:
United States
More flights under this callsign
Pilot: Sean V. (11521)
Aircraft: Unknown
(K100)
More flights by this aircraft type
Origin: KAPA Centennial
United States
Destination: KTEX Telluride Regl
United States
More flights between these airports :: More routes between these airports
Route:
File this flight plan on PilotEdge
Remarks: ff W
Altitude:
(Current/Filed)
0ft
Speed:
(Current/Filed)
0kts
Departed: 22-Aug-23 10:28 AM
Arrived: 22-Aug-23 11:44 AM
Distance/Time
Traveled:
173nm/1:16
Distance/Time
To Go:
Arrived

Flight Plot

Page will automatically refresh every two minutes.

Flight plan parsing failed; only flown route is shown


Map Options




Map Legend


Flown Route
Filed Route
Departure Airport
Arrival Airport
Navaid (VOR, NDB)
Fix

Horizontal Profiles

Position Reports

Time Latitude Longitude Heading Altitude Ground
Speed
22-Aug-23 10:26 39.243557 -104.785767 171 9955ft 149kts
22-Aug-23 10:27 39.207330 -104.810006 211 10422ft 162kts
22-Aug-23 10:28 39.176549 -104.852488 232 10445ft 165kts
22-Aug-23 10:29 39.151435 -104.901880 232 10461ft 166kts
22-Aug-23 10:30 39.130442 -104.954847 247 10474ft 168kts
22-Aug-23 10:31 39.115387 -105.014474 248 10788ft 169kts
22-Aug-23 10:32 39.101341 -105.069473 245 11389ft 153kts
22-Aug-23 10:33 39.083543 -105.119314 239 12033ft 153kts
22-Aug-23 10:34 39.063432 -105.171236 240 12362ft 172kts
22-Aug-23 10:35 39.042053 -105.226642 239 12329ft 173kts
22-Aug-23 10:36 39.020486 -105.282241 240 12296ft 174kts
22-Aug-23 10:37 38.998992 -105.337329 238 12298ft 171kts
22-Aug-23 10:38 38.978913 -105.388784 239 12295ft 150kts
22-Aug-23 10:39 38.960145 -105.436797 239 12306ft 152kts
22-Aug-23 10:40 38.940869 -105.486059 238 12307ft 156kts
22-Aug-23 10:41 38.920686 -105.537551 238 12315ft 163kts
22-Aug-23 10:42 38.900650 -105.588632 238 12306ft 157kts
22-Aug-23 10:43 38.881056 -105.638420 238 12306ft 158kts
22-Aug-23 10:44 38.861234 -105.688739 238 12341ft 156kts
22-Aug-23 10:45 38.841707 -105.738233 237 12420ft 153kts
22-Aug-23 10:46 38.822901 -105.785804 237 12761ft 148kts
22-Aug-23 10:47 38.804291 -105.832845 237 13098ft 149kts
22-Aug-23 10:48 38.785423 -105.880429 237 13445ft 149kts
22-Aug-23 10:49 38.766568 -105.927881 237 13789ft 149kts
22-Aug-23 10:50 38.753868 -105.979166 247 14207ft 149kts
22-Aug-23 10:51 38.742219 -106.030779 247 14703ft 151kts
22-Aug-23 10:52 38.730449 -106.082870 246 15175ft 152kts
22-Aug-23 10:53 38.718631 -106.135065 246 15612ft 152kts
22-Aug-23 10:54 38.705825 -106.191298 247 15475ft 168kts
22-Aug-23 10:55 38.693406 -106.246048 247 15425ft 158kts
22-Aug-23 10:56 38.680820 -106.301198 246 15388ft 163kts
22-Aug-23 10:57 38.667990 -106.357197 246 15347ft 166kts
22-Aug-23 10:58 38.654793 -106.414848 246 15304ft 171kts
22-Aug-23 10:59 38.641714 -106.471735 247 15257ft 168kts
22-Aug-23 11:00 38.628158 -106.530564 247 15263ft 172kts
22-Aug-23 11:01 38.614688 -106.588836 247 15308ft 168kts
22-Aug-23 11:02 38.601366 -106.646527 247 15354ft 169kts
22-Aug-23 11:03 38.588108 -106.703615 246 15397ft 167kts
22-Aug-23 11:04 38.574781 -106.760822 247 15445ft 167kts
22-Aug-23 11:05 38.561480 -106.817905 247 15484ft 167kts
22-Aug-23 11:06 38.548136 -106.874930 247 15491ft 167kts
22-Aug-23 11:07 38.534769 -106.932023 247 15490ft 167kts
22-Aug-23 11:08 38.521424 -106.988792 247 15492ft 167kts
22-Aug-23 11:09 38.508057 -107.045471 247 15493ft 168kts
22-Aug-23 11:11 38.494425 -107.103226 247 15449ft 170kts
22-Aug-23 11:12 38.480889 -107.160471 247 15405ft 168kts
22-Aug-23 11:13 38.467394 -107.217361 247 15360ft 166kts
22-Aug-23 11:14 38.454028 -107.273474 246 15310ft 165kts
22-Aug-23 11:15 38.440542 -107.329991 247 15262ft 168kts
22-Aug-23 11:16 38.426815 -107.387488 247 15226ft 171kts
22-Aug-23 11:17 38.412778 -107.446025 247 15161ft 173kts
22-Aug-23 11:18 38.398454 -107.505615 248 14904ft 179kts
22-Aug-23 11:19 38.383714 -107.566918 248 14646ft 183kts
22-Aug-23 11:20 38.368619 -107.629550 248 14389ft 182kts
22-Aug-23 11:21 38.353903 -107.690362 249 14132ft 178kts
22-Aug-23 11:22 38.339228 -107.750699 248 13844ft 180kts
22-Aug-23 11:23 38.324456 -107.811543 248 13549ft 181kts
22-Aug-23 11:24 38.309616 -107.872376 247 13246ft 179kts
22-Aug-23 11:25 38.294779 -107.933021 246 12942ft 180kts
22-Aug-23 11:26 38.279893 -107.993909 246 12741ft 176kts
22-Aug-23 11:27 38.265608 -108.051926 244 12719ft 171kts
22-Aug-23 11:28 38.250882 -108.111586 245 12693ft 179kts
22-Aug-23 11:29 38.236108 -108.171544 245 12660ft 175kts
22-Aug-23 11:30 38.222020 -108.228496 244 12643ft 166kts
22-Aug-23 11:31 38.208002 -108.285101 244 12571ft 166kts
22-Aug-23 11:32 38.179053 -108.322823 187 12570ft 151kts
22-Aug-23 11:33 38.139043 -108.309613 159 12577ft 151kts
22-Aug-23 11:33 38.106869 -108.292993 158 12613ft 149kts
22-Aug-23 11:35 38.062340 -108.269993 159 12674ft 147kts
22-Aug-23 11:36 38.032998 -108.234839 116 12741ft 159kts
22-Aug-23 11:37 38.016747 -108.181810 117 12815ft 161kts
22-Aug-23 11:38 38.000725 -108.129628 117 12879ft 156kts
22-Aug-23 11:38 37.990512 -108.083697 110 12693ft 172kts
22-Aug-23 11:39 37.978630 -108.026587 110 11617ft 164kts
22-Aug-23 11:41 37.966620 -107.970127 110 10261ft 120kts
22-Aug-23 11:42 37.958069 -107.928465 108 9264ft 121kts
22-Aug-23 11:43 37.952571 -107.902895 104 9036ft 44kts
22-Aug-23 11:43 37.954036 -107.902549 21 9054ft 1kts
22-Aug-23 11:44 37.954184 -107.902186 13 9056ft 0kts
22-Aug-23 11:45 37.954184 -107.902186 13 9056ft 0kts
22-Aug-23 11:46 37.954184 -107.902186 13 9056ft 0kts

Navigation Log

Ident Type
Flight plan parsing failed, navigation log unavailable